Time;durP1;ratioP1;P1;durP2;ratioP2;P2;SDS_P1;SDS_P2;PMS_P1;PMS_P2;Temp;Humidity;BMP_temperature;BMP_pressure;BME280_temperature;BME280_humidity;BME280_pressure;Samples;Min_cycle;Max_cycle;Signal;HPM_P1;HPM_P2
2022/07/17 00:00:04;;;;;;;3.88;2.20;;;17.90;71.20;;;;;;5026538;28;20060;-75
2022/07/17 00:02:30;;;;;;;3.67;2.40;;;17.90;71.40;;;;;;5008023;28;20501;-74
2022/07/17 00:04:55;;;;;;;6.20;2.80;;;17.90;71.40;;;;;;5026909;28;20052;-75
2022/07/17 00:07:21;;;;;;;7.05;2.75;;;17.90;71.40;;;;;;5026147;28;20033;-74
2022/07/17 00:09:47;;;;;;;3.75;2.03;;;17.90;71.50;;;;;;5024248;28;20063;-75
2022/07/17 00:12:12;;;;;;;6.07;2.60;;;17.80;71.50;;;;;;5027563;28;20037;-75
2022/07/17 00:14:38;;;;;;;3.60;2.72;;;17.80;71.60;;;;;;5026694;28;20026;-75
2022/07/17 00:17:05;;;;;;;6.32;2.20;;;17.80;71.70;;;;;;5024735;28;20112;-75
2022/07/17 00:19:31;;;;;;;2.92;1.92;;;17.80;71.90;;;;;;5025159;28;20026;-75
2022/07/17 00:21:57;;;;;;;4.25;2.53;;;17.70;72.00;;;;;;5027626;28;20064;-76
2022/07/17 00:24:23;;;;;;;4.88;2.33;;;17.70;72.20;;;;;;5024718;28;20083;-75
2022/07/17 00:26:49;;;;;;;6.20;2.83;;;17.70;72.30;;;;;;5009603;28;20025;-75
2022/07/17 00:29:16;;;;;;;7.32;3.08;;;17.60;72.30;;;;;;5025863;28;20030;-76
2022/07/17 00:31:42;;;;;;;5.13;2.85;;;17.50;72.60;;;;;;5028341;28;20037;-75
2022/07/17 00:34:07;;;;;;;5.68;2.50;;;17.50;72.60;;;;;;5026290;28;20448;-75
2022/07/17 00:36:33;;;;;;;5.15;3.10;;;17.50;72.80;;;;;;5026238;28;20025;-75
2022/07/17 00:38:59;;;;;;;4.82;2.97;;;17.40;72.90;;;;;;5020666;28;20047;-75
2022/07/17 00:41:24;;;;;;;5.57;3.35;;;17.40;73.00;;;;;;5029663;28;20536;-75
2022/07/17 00:43:50;;;;;;;4.63;3.70;;;17.30;72.90;;;;;;5027088;28;20017;-75
2022/07/17 00:46:15;;;;;;;5.60;2.88;;;17.30;73.00;;;;;;5027727;28;20545;-74
2022/07/17 00:48:41;;;;;;;6.20;3.22;;;17.30;73.10;;;;;;5029042;28;20112;-74
2022/07/17 00:51:08;;;;;;;6.35;2.65;;;17.30;73.10;;;;;;5029344;28;20132;-75
2022/07/17 00:53:35;;;;;;;5.95;2.88;;;17.30;73.20;;;;;;5030297;28;20084;-74
2022/07/17 00:56:05;;;;;;;6.43;2.78;;;17.30;73.50;;;;;;5028799;28;20051;-75
2022/07/17 00:58:34;;;;;;;4.63;3.05;;;17.30;73.40;;;;;;5028216;28;20467;-75
2022/07/17 01:01:05;;;;;;;8.50;3.13;;;17.20;73.50;;;;;;5028988;28;20029;-75
2022/07/17 01:03:31;;;;;;;4.80;2.40;;;17.20;73.70;;;;;;5005444;28;20053;-75
2022/07/17 01:05:57;;;;;;;4.68;2.60;;;17.20;73.90;;;;;;5024532;28;20021;-75
2022/07/17 01:08:23;;;;;;;3.45;2.60;;;17.10;73.80;;;;;;5029842;28;20040;-75
2022/07/17 01:10:49;;;;;;;5.07;2.67;;;17.10;73.90;;;;;;5026835;28;20048;-74
2022/07/17 01:13:15;;;;;;;8.07;2.85;;;17.10;73.90;;;;;;5011068;28;20037;-75
2022/07/17 01:15:41;;;;;;;4.63;2.42;;;17.00;73.90;;;;;;5028889;28;20077;-75
2022/07/17 01:18:08;;;;;;;5.03;2.38;;;17.00;74.10;;;;;;5013252;28;20437;-75
2022/07/17 01:20:36;;;;;;;7.35;2.55;;;17.00;74.60;;;;;;5028807;28;20521;-75
2022/07/17 01:23:02;;;;;;;3.72;2.42;;;17.00;74.30;;;;;;5029971;28;20017;-75
2022/07/17 01:25:27;;;;;;;4.43;2.72;;;16.90;74.40;;;;;;5029491;28;20445;-75
2022/07/17 01:27:53;;;;;;;5.40;2.53;;;16.90;74.50;;;;;;5027560;28;20169;-75
2022/07/17 01:30:19;;;;;;;5.13;3.05;;;16.90;74.50;;;;;;5029525;28;20493;-75
2022/07/17 01:32:45;;;;;;;3.95;2.20;;;16.90;74.50;;;;;;5028696;28;20022;-75
2022/07/17 01:35:12;;;;;;;3.72;2.13;;;16.90;74.50;;;;;;5030174;28;20037;-75
2022/07/17 01:37:39;;;;;;;5.57;2.30;;;16.90;74.60;;;;;;5027547;28;20033;-75
2022/07/17 01:40:07;;;;;;;3.17;2.10;;;16.80;74.60;;;;;;5029280;28;20025;-75
2022/07/17 01:42:32;;;;;;;5.38;3.15;;;16.80;74.80;;;;;;5027043;28;20072;-75
2022/07/17 01:44:58;;;;;;;3.40;2.35;;;16.80;75.00;;;;;;5029411;28;20088;-75
2022/07/17 01:47:24;;;;;;;6.88;2.72;;;16.80;75.10;;;;;;5030740;28;20014;-75
2022/07/17 01:49:56;;;;;;;2.97;2.17;;;16.70;75.30;;;;;;5027385;28;20025;-75
2022/07/17 01:52:23;;;;;;;4.10;2.85;;;16.70;75.30;;;;;;5028954;28;20087;-75
2022/07/17 01:54:49;;;;;;;5.25;2.75;;;16.70;75.30;;;;;;5025875;28;20521;-74
2022/07/17 01:57:15;;;;;;;6.63;2.42;;;16.70;75.50;;;;;;5029810;28;20413;-75
2022/07/17 01:59:41;;;;;;;3.40;2.53;;;16.60;75.50;;;;;;5029128;28;20029;-74
2022/07/17 02:02:08;;;;;;;3.53;2.30;;;16.60;75.70;;;;;;5010248;28;20037;-74
2022/07/17 02:04:35;;;;;;;5.38;2.72;;;16.60;75.70;;;;;;5029912;28;20075;-74
2022/07/17 02:07:02;;;;;;;3.28;2.22;;;16.50;75.50;;;;;;5024046;28;20562;-74
2022/07/17 02:09:27;;;;;;;5.53;2.42;;;16.50;75.70;;;;;;5019947;28;20041;-74
2022/07/17 02:11:54;;;;;;;5.40;2.30;;;16.40;75.90;;;;;;5029981;28;20163;-74
2022/07/17 02:14:19;;;;;;;5.05;2.50;;;16.40;76.20;;;;;;5027292;28;20508;-75
2022/07/17 02:16:45;;;;;;;5.63;2.13;;;16.40;76.50;;;;;;5027882;28;20113;-75
2022/07/17 02:19:11;;;;;;;3.60;2.47;;;16.30;76.50;;;;;;5028390;28;20029;-74
2022/07/17 02:21:37;;;;;;;6.15;2.60;;;16.30;76.70;;;;;;5009134;28;20391;-75
2022/07/17 02:24:03;;;;;;;4.53;2.55;;;16.30;76.80;;;;;;5029008;28;20036;-74
2022/07/17 02:26:28;;;;;;;5.05;2.90;;;16.20;76.80;;;;;;5028875;28;20030;-74
2022/07/17 02:28:54;;;;;;;5.28;3.17;;;16.30;76.80;;;;;;5028002;28;20401;-74
2022/07/17 02:31:21;;;;;;;5.65;2.90;;;16.20;77.00;;;;;;5027682;28;20072;-74
2022/07/17 02:33:46;;;;;;;4.80;2.95;;;16.20;78.00;;;;;;5030319;28;20520;-74
2022/07/17 02:36:12;;;;;;;7.30;3.63;;;16.20;78.00;;;;;;5027875;28;20026;-74
2022/07/17 02:38:37;;;;;;;6.00;3.63;;;16.10;78.50;;;;;;5020969;28;20033;-74
2022/07/17 02:41:03;;;;;;;4.75;3.42;;;16.10;78.80;;;;;;5028970;28;20021;-74
2022/07/17 02:43:29;;;;;;;6.47;3.90;;;16.10;79.20;;;;;;5021162;28;20033;-75
2022/07/17 02:45:54;;;;;;;4.07;3.17;;;16.10;79.50;;;;;;5026255;28;20100;-75
2022/07/17 02:48:20;;;;;;;7.25;3.08;;;16.00;79.50;;;;;;5029255;28;20033;-75
2022/07/17 02:50:46;;;;;;;6.22;3.45;;;16.00;79.30;;;;;;5044976;23;20052;-75
2022/07/17 02:53:11;;;;;;;5.40;3.70;;;15.90;79.30;;;;;;5048823;28;20025;-75
2022/07/17 02:55:38;;;;;;;6.88;4.10;;;15.90;79.40;;;;;;5051243;28;20049;-76
2022/07/17 02:58:04;;;;;;;6.43;3.83;;;15.90;79.70;;;;;;5048819;28;20020;-73
2022/07/17 03:00:30;;;;;;;6.97;4.13;;;15.80;80.10;;;;;;5045379;28;20025;-75
2022/07/17 03:02:56;;;;;;;5.60;4.20;;;15.90;80.50;;;;;;5030419;28;20017;-75
2022/07/17 03:05:22;;;;;;;6.68;3.65;;;15.90;80.80;;;;;;5015333;28;20025;-75
2022/07/17 03:07:48;;;;;;;5.25;2.80;;;15.90;80.60;;;;;;5027534;28;20029;-75
2022/07/17 03:10:14;;;;;;;5.25;2.75;;;15.90;79.90;;;;;;5025400;28;20039;-74
2022/07/17 03:12:40;;;;;;;4.32;2.88;;;15.80;79.40;;;;;;5028006;28;20080;-74
2022/07/17 03:15:07;;;;;;;3.67;2.30;;;15.80;79.20;;;;;;5013930;28;20025;-74
2022/07/17 03:17:33;;;;;;;4.13;2.95;;;15.70;79.10;;;;;;5031877;28;20021;-73
2022/07/17 03:19:59;;;;;;;4.47;2.70;;;15.70;79.40;;;;;;5031890;28;20032;-72
2022/07/17 03:22:24;;;;;;;4.57;3.40;;;15.70;79.50;;;;;;5022863;28;20028;-73
2022/07/17 03:24:50;;;;;;;8.05;3.70;;;15.70;79.90;;;;;;5028588;28;20026;-73
2022/07/17 03:27:17;;;;;;;10.05;3.83;;;15.60;80.40;;;;;;5030005;28;20025;-73
2022/07/17 03:29:43;;;;;;;7.40;4.22;;;15.60;81.10;;;;;;5030340;28;20029;-74
2022/07/17 03:32:10;;;;;;;5.60;3.85;;;15.60;81.50;;;;;;5027004;28;20021;-74
2022/07/17 03:34:36;;;;;;;8.55;3.20;;;15.50;81.70;;;;;;5015460;28;20068;-74
2022/07/17 03:37:03;;;;;;;4.60;2.65;;;15.50;81.60;;;;;;5029139;28;20410;-75
2022/07/17 03:39:29;;;;;;;5.63;2.80;;;15.40;81.30;;;;;;5030899;28;20032;-75
2022/07/17 03:41:55;;;;;;;4.95;3.05;;;15.40;82.00;;;;;;5030179;28;20047;-73
2022/07/17 03:44:21;;;;;;;4.60;2.85;;;15.30;81.40;;;;;;5031149;28;20021;-73
2022/07/17 03:46:47;;;;;;;4.07;2.60;;;15.30;81.50;;;;;;5025916;28;20148;-73
2022/07/17 03:49:12;;;;;;;5.00;3.05;;;15.30;81.60;;;;;;5012304;28;20523;-73
2022/07/17 03:51:38;;;;;;;5.40;2.60;;;15.30;81.60;;;;;;5025677;28;20034;-73
2022/07/17 03:54:04;;;;;;;3.83;2.65;;;15.30;81.40;;;;;;5014327;28;20033;-73
2022/07/17 03:56:30;;;;;;;3.00;2.30;;;15.30;81.30;;;;;;5026002;28;20061;-73
2022/07/17 03:58:55;;;;;;;3.65;2.80;;;15.30;81.30;;;;;;5025639;28;20040;-75
2022/07/17 04:01:21;;;;;;;4.53;2.58;;;15.30;81.80;;;;;;5007657;28;20475;-72
2022/07/17 04:03:47;;;;;;;4.80;2.90;;;15.30;81.20;;;;;;5014486;28;20022;-74
2022/07/17 04:06:13;;;;;;;4.50;2.83;;;15.30;81.10;;;;;;5014433;28;20029;-74
2022/07/17 04:08:38;;;;;;;5.45;2.58;;;15.30;81.00;;;;;;5033631;28;20037;-73
2022/07/17 04:11:04;;;;;;;5.25;2.88;;;15.30;81.00;;;;;;5031830;28;20231;-74
2022/07/17 04:13:30;;;;;;;4.28;2.50;;;15.30;80.90;;;;;;5029277;28;20033;-73
2022/07/17 04:15:56;;;;;;;3.45;2.58;;;15.30;80.90;;;;;;5032223;28;20167;-74
2022/07/17 04:18:28;;;;;;;5.82;2.60;;;15.30;80.80;;;;;;5030707;28;20025;-74
2022/07/17 04:21:01;;;;;;;6.53;2.95;;;15.30;80.80;;;;;;5026336;28;20036;-74
2022/07/17 04:23:28;;;;;;;4.13;2.45;;;15.30;80.70;;;;;;5030984;28;20039;-72
2022/07/17 04:25:54;;;;;;;3.20;2.58;;;15.30;80.60;;;;;;5033557;28;20478;-74
2022/07/17 04:28:20;;;;;;;3.95;2.47;;;15.30;80.60;;;;;;5033500;28;20064;-73
2022/07/17 04:30:46;;;;;;;3.85;2.50;;;15.40;80.50;;;;;;5032678;28;20470;-74
2022/07/17 04:33:12;;;;;;;3.30;2.53;;;15.40;80.30;;;;;;5032082;28;20062;-73
2022/07/17 04:35:38;;;;;;;3.67;2.67;;;15.50;80.30;;;;;;5029237;28;20022;-74
2022/07/17 04:38:05;;;;;;;3.33;2.58;;;15.50;80.10;;;;;;5030014;28;20029;-74
2022/07/17 04:40:32;;;;;;;4.05;3.00;;;15.60;80.00;;;;;;5018647;28;20116;-73
2022/07/17 04:42:58;;;;;;;3.80;2.67;;;15.70;79.90;;;;;;5029422;28;20029;-73
2022/07/17 04:45:23;;;;;;;3.83;2.42;;;15.80;79.70;;;;;;5019316;28;20084;-73
2022/07/17 04:47:49;;;;;;;4.22;2.45;;;15.90;79.40;;;;;;5030519;28;20018;-72
2022/07/17 04:50:15;;;;;;;6.22;2.50;;;16.00;79.20;;;;;;5026571;28;20029;-74
2022/07/17 04:52:40;;;;;;;6.55;3.15;;;16.10;78.80;;;;;;5016327;28;20501;-73
2022/07/17 04:55:06;;;;;;;5.55;3.63;;;16.20;78.70;;;;;;5034211;28;20116;-79
2022/07/17 04:57:32;;;;;;;5.32;3.70;;;16.40;79.00;;;;;;5035052;28;20083;-71
2022/07/17 04:59:58;;;;;;;6.55;4.10;;;16.50;79.20;;;;;;5018440;28;20385;-73
2022/07/17 05:02:24;;;;;;;6.20;5.13;;;16.60;79.10;;;;;;5036024;28;20033;-74
2022/07/17 05:04:49;;;;;;;9.45;6.53;;;16.80;79.00;;;;;;5008393;28;20394;-73
2022/07/17 05:07:15;;;;;;;11.30;9.50;;;17.00;78.70;;;;;;5030547;28;20036;-73
2022/07/17 05:09:41;;;;;;;11.75;7.13;;;17.10;78.40;;;;;;5030869;28;20520;-74
2022/07/17 05:12:07;;;;;;;6.32;4.70;;;17.30;78.00;;;;;;5039778;28;20314;-73
2022/07/17 05:14:32;;;;;;;6.10;4.22;;;17.40;77.60;;;;;;5017813;28;20088;-71
2022/07/17 05:16:59;;;;;;;6.95;4.20;;;17.50;77.20;;;;;;5033500;28;20018;-74
2022/07/17 05:19:24;;;;;;;5.82;4.28;;;17.60;76.70;;;;;;5030746;28;20029;-73
2022/07/17 05:21:50;;;;;;;6.00;3.70;;;17.70;76.40;;;;;;5014118;28;20040;-74
2022/07/17 05:24:16;;;;;;;10.45;3.78;;;17.80;75.80;;;;;;5008707;28;20463;-74
2022/07/17 05:26:42;;;;;;;3.95;3.05;;;17.90;75.60;;;;;;5031408;28;21438;-73
2022/07/17 05:29:08;;;;;;;4.75;2.75;;;18.00;75.10;;;;;;5023617;28;20029;-74
2022/07/17 05:31:33;;;;;;;4.20;2.88;;;18.10;74.40;;;;;;5034565;28;20398;-71
2022/07/17 05:33:59;;;;;;;7.00;3.40;;;18.20;74.40;;;;;;5025175;28;20430;-72
2022/07/17 05:36:25;;;;;;;4.68;2.70;;;18.30;74.30;;;;;;5022934;28;20029;-72
2022/07/17 05:38:50;;;;;;;4.20;3.55;;;18.40;73.80;;;;;;5016741;28;20075;-73
2022/07/17 05:41:16;;;;;;;5.15;3.80;;;18.40;73.70;;;;;;5027621;28;20021;-71
2022/07/17 05:43:42;;;;;;;4.93;3.67;;;18.60;73.60;;;;;;5026602;28;20406;-72
2022/07/17 05:46:07;;;;;;;5.05;3.55;;;18.60;73.20;;;;;;5023986;28;20593;-72
2022/07/17 05:48:33;;;;;;;7.93;4.38;;;18.70;73.20;;;;;;5027224;28;20037;-73
2022/07/17 05:50:58;;;;;;;6.45;3.78;;;18.90;73.00;;;;;;5023996;28;20033;-72
2022/07/17 05:53:24;;;;;;;8.57;4.20;;;19.00;72.80;;;;;;5025985;28;20026;-72
2022/07/17 05:55:50;;;;;;;11.15;3.53;;;19.10;72.10;;;;;;5029112;28;20430;-71
2022/07/17 05:58:16;;;;;;;6.97;3.42;;;19.20;71.80;;;;;;5026349;28;20034;-71
2022/07/17 06:00:42;;;;;;;6.53;3.50;;;19.30;71.40;;;;;;5005384;28;20040;-72
2022/07/17 06:03:07;;;;;;;4.53;3.83;;;19.30;71.40;;;;;;5027467;28;20029;-72
2022/07/17 06:05:33;;;;;;;5.95;4.38;;;19.30;70.80;;;;;;5026548;28;20076;-72
2022/07/17 06:07:59;;;;;;;7.43;4.07;;;19.20;71.20;;;;;;5029160;28;20109;-71
2022/07/17 06:10:26;;;;;;;6.68;4.28;;;19.30;71.70;;;;;;5014804;28;20044;-72
2022/07/17 06:12:54;;;;;;;5.80;4.38;;;19.40;71.30;;;;;;5023412;28;20475;-72
2022/07/17 06:15:20;;;;;;;5.35;3.97;;;19.50;71.10;;;;;;5025492;28;20501;-74
2022/07/17 06:17:47;;;;;;;6.50;4.20;;;19.60;70.90;;;;;;5015790;28;20033;-75
2022/07/17 06:20:14;;;;;;;7.65;4.72;;;19.70;70.50;;;;;;5032149;28;20026;-74
2022/07/17 06:22:40;;;;;;;7.63;4.35;;;19.80;70.30;;;;;;5030371;28;20025;-74
2022/07/17 06:25:07;;;;;;;6.32;4.35;;;20.00;69.60;;;;;;5018512;28;20022;-73
2022/07/17 06:27:33;;;;;;;5.93;4.07;;;20.00;69.50;;;;;;5020334;28;20033;-76
2022/07/17 06:29:59;;;;;;;6.18;3.75;;;20.10;69.40;;;;;;5016808;28;20437;-75
2022/07/17 06:32:25;;;;;;;6.95;3.88;;;20.10;69.30;;;;;;5030982;28;20030;-75
2022/07/17 06:34:50;;;;;;;5.20;3.45;;;20.20;69.10;;;;;;5017757;28;20033;-73
2022/07/17 06:37:16;;;;;;;6.18;4.18;;;20.30;69.10;;;;;;5031262;28;20034;-74
2022/07/17 06:39:42;;;;;;;7.43;4.25;;;20.40;69.00;;;;;;5027514;28;20060;-74
2022/07/17 06:42:07;;;;;;;5.57;3.25;;;20.50;68.80;;;;;;5015092;28;20112;-73
2022/07/17 06:44:34;;;;;;;8.07;3.20;;;20.60;68.20;;;;;;5022253;28;20033;-73
2022/07/17 06:46:59;;;;;;;8.43;3.55;;;20.60;67.90;;;;;;5022581;28;20120;-73
2022/07/17 06:49:25;;;;;;;6.93;2.75;;;20.70;68.00;;;;;;5020649;28;20494;-73
2022/07/17 06:51:51;;;;;;;5.25;3.00;;;20.80;67.90;;;;;;5034807;28;20037;-73
2022/07/17 06:54:17;;;;;;;8.05;3.13;;;20.90;68.40;;;;;;5029640;28;20030;-73
2022/07/17 06:56:43;;;;;;;3.28;2.42;;;20.90;67.70;;;;;;5028972;28;20026;-73
2022/07/17 06:59:08;;;;;;;4.93;3.45;;;20.90;67.90;;;;;;5002209;28;20023;-75
2022/07/17 07:01:35;;;;;;;4.70;3.03;;;20.90;68.00;;;;;;5032614;28;20112;-74
2022/07/17 07:04:01;;;;;;;5.35;2.58;;;20.80;67.80;;;;;;5032575;28;20018;-75
2022/07/17 07:06:27;;;;;;;5.47;3.03;;;20.80;67.90;;;;;;5032505;28;20481;-74
2022/07/17 07:08:53;;;;;;;6.43;3.45;;;20.70;68.10;;;;;;5014819;28;20021;-74
2022/07/17 07:11:18;;;;;;;5.10;3.00;;;20.70;68.20;;;;;;5032259;28;20036;-74
2022/07/17 07:13:44;;;;;;;4.63;3.05;;;20.70;68.30;;;;;;5032189;28;20377;-74
2022/07/17 07:16:10;;;;;;;6.47;3.40;;;20.60;68.70;;;;;;5032391;28;20037;-74
2022/07/17 07:18:36;;;;;;;4.15;3.05;;;20.60;70.10;;;;;;5032407;28;20017;-74
2022/07/17 07:21:02;;;;;;;6.13;3.75;;;20.50;70.10;;;;;;5032123;28;20021;-75
2022/07/17 07:23:27;;;;;;;7.90;3.28;;;20.50;70.30;;;;;;5012332;28;20049;-75
2022/07/17 07:25:53;;;;;;;3.85;2.95;;;20.40;70.10;;;;;;5034721;28;20402;-75
2022/07/17 07:28:18;;;;;;;6.05;2.75;;;20.30;69.40;;;;;;5027828;28;20029;-75
2022/07/17 07:30:44;;;;;;;5.55;2.72;;;20.40;69.30;;;;;;5031190;28;20512;-75
2022/07/17 07:33:10;;;;;;;4.00;2.67;;;20.30;69.10;;;;;;5032062;28;20441;-75
2022/07/17 07:35:36;;;;;;;3.90;2.67;;;20.40;68.50;;;;;;5031578;28;20029;-76
2022/07/17 07:38:02;;;;;;;4.10;2.45;;;20.30;67.80;;;;;;5028860;28;20053;-76
2022/07/17 07:40:28;;;;;;;12.13;3.20;;;20.30;67.90;;;;;;5044869;28;20362;-75
2022/07/17 07:42:54;;;;;;;4.63;2.63;;;20.30;67.90;;;;;;5029811;28;20032;-74
2022/07/17 07:45:20;;;;;;;4.00;2.50;;;20.20;67.90;;;;;;5012336;28;20022;-74
2022/07/17 07:47:49;;;;;;;3.22;2.83;;;20.30;68.50;;;;;;5031587;28;20104;-74
2022/07/17 07:50:15;;;;;;;5.10;2.55;;;20.30;69.30;;;;;;5035060;28;20120;-75
2022/07/17 07:52:42;;;;;;;5.28;2.80;;;20.40;68.80;;;;;;5032987;28;20036;-75
2022/07/17 07:55:09;;;;;;;6.07;2.58;;;20.50;68.50;;;;;;5035874;28;20033;-74
2022/07/17 07:57:35;;;;;;;3.78;2.70;;;20.60;68.30;;;;;;5017945;28;20037;-75
2022/07/17 08:00:01;;;;;;;4.72;2.47;;;20.60;68.30;;;;;;5035778;28;20022;-75
2022/07/17 08:02:26;;;;;;;5.15;2.33;;;20.60;68.30;;;;;;5035328;28;20124;-73
2022/07/17 08:04:52;;;;;;;6.88;2.90;;;20.70;67.50;;;;;;5035833;28;20040;-73
2022/07/17 08:07:18;;;;;;;6.20;2.85;;;20.70;67.70;;;;;;5035917;28;20034;-73
2022/07/17 08:09:43;;;;;;;3.47;2.83;;;20.80;68.00;;;;;;5035667;28;20102;-73
2022/07/17 08:12:09;;;;;;;3.28;2.92;;;20.90;68.70;;;;;;5035166;28;20033;-74
2022/07/17 08:14:35;;;;;;;6.05;2.65;;;21.00;69.00;;;;;;5037087;28;20040;-78
2022/07/17 08:17:00;;;;;;;5.95;3.30;;;21.00;68.70;;;;;;5036599;28;20036;-74
2022/07/17 08:19:26;;;;;;;5.47;2.65;;;21.10;68.80;;;;;;5018186;28;20033;-74
2022/07/17 08:21:51;;;;;;;5.18;2.80;;;21.10;69.10;;;;;;5036951;28;20060;-77
2022/07/17 08:24:17;;;;;;;3.85;2.88;;;21.20;69.20;;;;;;5038753;28;20117;-77
2022/07/17 08:26:43;;;;;;;3.92;3.10;;;21.30;69.20;;;;;;5035523;28;20080;-76
2022/07/17 08:29:09;;;;;;;4.53;2.70;;;21.40;69.10;;;;;;5035655;28;20502;-76
2022/07/17 08:31:35;;;;;;;4.65;2.80;;;21.40;68.90;;;;;;5034075;28;20038;-77
2022/07/17 08:34:01;;;;;;;3.92;2.47;;;21.50;68.30;;;;;;5035696;28;20643;-75
2022/07/17 08:36:26;;;;;;;3.50;2.63;;;21.60;67.90;;;;;;5035468;28;20040;-75
2022/07/17 08:38:52;;;;;;;3.75;2.45;;;21.60;68.00;;;;;;5034632;28;20474;-76
2022/07/17 08:41:21;;;;;;;4.68;2.78;;;21.70;67.60;;;;;;5030612;28;20025;-78
2022/07/17 08:43:48;;;;;;;5.85;2.67;;;21.90;67.30;;;;;;5032730;28;20021;-73
2022/07/17 08:46:16;;;;;;;5.55;2.58;;;21.90;67.10;;;;;;5028530;28;20105;-75
2022/07/17 08:48:44;;;;;;;6.38;2.30;;;22.10;67.10;;;;;;5028001;28;20126;-76
2022/07/17 08:51:11;;;;;;;4.07;2.50;;;22.10;66.60;;;;;;5029088;28;20033;-76
2022/07/17 08:53:37;;;;;;;5.70;3.13;;;22.20;66.50;;;;;;5015748;28;20033;-77
2022/07/17 08:56:03;;;;;;;5.60;2.67;;;22.30;66.10;;;;;;5017608;28;20513;-75
2022/07/17 08:58:29;;;;;;;6.15;2.55;;;22.40;65.40;;;;;;5032339;28;20034;-75
2022/07/17 09:00:55;;;;;;;4.57;2.15;;;22.50;64.80;;;;;;5024696;28;20029;-73
2022/07/17 09:03:23;;;;;;;4.22;2.65;;;22.60;63.80;;;;;;5024161;28;20141;-76
2022/07/17 09:05:49;;;;;;;5.78;2.95;;;22.60;64.20;;;;;;5027701;28;20014;-75
2022/07/17 09:08:21;;;;;;;6.00;2.35;;;22.70;63.90;;;;;;5027382;28;20510;-74
2022/07/17 09:10:49;;;;;;;2.75;2.20;;;22.70;63.90;;;;;;5028540;28;20049;-76
2022/07/17 09:13:16;;;;;;;4.50;2.47;;;22.80;63.20;;;;;;5019688;28;20534;-75
2022/07/17 09:15:43;;;;;;;5.40;2.25;;;22.90;62.70;;;;;;5029167;28;20029;-75
2022/07/17 09:18:08;;;;;;;3.90;2.38;;;22.90;62.10;;;;;;5031392;28;20040;-76
2022/07/17 09:20:34;;;;;;;6.13;2.47;;;23.00;62.10;;;;;;5028353;28;20029;-74
2022/07/17 09:23:04;;;;;;;4.00;1.88;;;22.90;61.30;;;;;;5026003;28;20026;-72
2022/07/17 09:25:59;;;;;;;7.53;2.40;;;23.00;61.30;;;;;;5029469;28;20040;-71
2022/07/17 09:28:24;;;;;;;2.97;2.00;;;23.10;61.10;;;;;;5014138;28;20056;-71
2022/07/17 09:30:55;;;;;;;3.20;1.83;;;23.20;60.40;;;;;;5026334;28;20060;-71
2022/07/17 09:33:23;;;;;;;4.32;1.95;;;23.30;59.40;;;;;;5031104;28;20068;-70
2022/07/17 09:35:54;;;;;;;3.45;1.90;;;23.30;58.90;;;;;;5032476;28;20022;-71
2022/07/17 09:38:35;;;;;;;4.18;1.95;;;23.40;59.30;;;;;;5037853;28;20450;-70
2022/07/17 09:41:15;;;;;;;3.63;1.90;;;23.50;59.20;;;;;;5025375;28;20030;-71
2022/07/17 09:43:57;;;;;;;2.45;1.70;;;23.50;59.10;;;;;;5028638;28;20091;-71
2022/07/17 09:46:32;;;;;;;2.63;1.70;;;23.50;59.10;;;;;;5027845;28;20029;-70
2022/07/17 09:49:03;;;;;;;3.47;1.63;;;23.60;58.70;;;;;;5026198;28;20050;-71
2022/07/17 09:51:39;;;;;;;4.63;2.00;;;23.60;58.50;;;;;;5021768;28;20045;-71
2022/07/17 09:54:07;;;;;;;3.42;1.65;;;23.60;58.20;;;;;;5029981;28;20021;-71
2022/07/17 09:56:35;;;;;;;5.85;1.98;;;23.60;57.90;;;;;;5027121;28;20029;-71
2022/07/17 09:59:04;;;;;;;4.25;1.90;;;23.70;57.80;;;;;;5032196;28;20486;-70
2022/07/17 10:01:31;;;;;;;5.53;1.90;;;23.70;57.90;;;;;;5028499;28;20467;-70
2022/07/17 10:03:57;;;;;;;2.45;1.77;;;23.70;58.00;;;;;;5033164;28;20021;-71
2022/07/17 10:06:24;;;;;;;3.13;1.75;;;23.70;57.70;;;;;;5029337;28;20064;-71
2022/07/17 10:08:51;;;;;;;5.07;1.88;;;23.70;57.50;;;;;;5033839;28;20121;-70
2022/07/17 10:11:20;;;;;;;7.03;2.47;;;23.80;57.40;;;;;;5028456;28;20403;-70
2022/07/17 10:13:47;;;;;;;4.78;1.95;;;23.80;56.80;;;;;;5017234;28;20034;-71
2022/07/17 10:16:14;;;;;;;2.85;1.98;;;23.80;57.10;;;;;;5030466;28;20470;-70
2022/07/17 10:18:44;;;;;;;3.17;2.03;;;23.80;57.50;;;;;;5030261;28;20029;-71
2022/07/17 10:21:11;;;;;;;2.90;1.80;;;23.80;57.30;;;;;;5029652;28;20470;-70
2022/07/17 10:23:38;;;;;;;2.85;1.70;;;23.90;57.60;;;;;;5013575;28;20401;-71
2022/07/17 10:26:03;;;;;;;2.63;1.77;;;23.90;57.40;;;;;;5027764;28;20034;-71
2022/07/17 10:28:59;;;;;;;3.58;1.48;;;24.00;57.10;;;;;;5029323;28;20052;-71
2022/07/17 10:31:31;;;;;;;3.15;1.70;;;23.90;57.10;;;;;;4992779;28;20040;-71
2022/07/17 10:34:04;;;;;;;6.03;1.70;;;24.00;57.10;;;;;;5034123;28;20024;-71
2022/07/17 10:36:37;;;;;;;2.97;1.60;;;23.90;57.20;;;;;;5029282;28;20551;-70
2022/07/17 10:39:16;;;;;;;2.42;1.98;;;24.00;56.90;;;;;;5033613;28;20022;-70
2022/07/17 10:41:54;;;;;;;4.45;2.10;;;24.00;57.30;;;;;;5029498;28;20036;-71
2022/07/17 10:44:26;;;;;;;2.95;1.80;;;24.00;57.20;;;;;;5008513;28;20104;-71
2022/07/17 10:46:52;;;;;;;3.65;2.25;;;24.00;57.10;;;;;;5029094;28;20053;-70
2022/07/17 10:49:18;;;;;;;3.47;1.73;;;24.10;57.20;;;;;;5021814;28;20064;-69
2022/07/17 10:51:45;;;;;;;6.05;1.90;;;24.10;56.80;;;;;;5029708;28;20107;-70
2022/07/17 10:54:11;;;;;;;4.97;2.05;;;24.20;56.90;;;;;;5029720;28;20037;-71
2022/07/17 10:56:40;;;;;;;3.00;2.17;;;24.30;56.60;;;;;;5016086;28;20112;-70
2022/07/17 10:59:06;;;;;;;2.92;1.83;;;24.20;56.40;;;;;;5029212;28;20017;-71
2022/07/17 11:01:32;;;;;;;6.10;2.00;;;24.30;56.30;;;;;;5029388;28;20530;-71
2022/07/17 11:04:00;;;;;;;4.47;2.00;;;24.30;56.50;;;;;;5029928;28;20057;-71
2022/07/17 11:06:30;;;;;;;3.78;2.10;;;24.30;56.30;;;;;;5029665;28;20033;-71
2022/07/17 11:09:09;;;;;;;3.55;1.70;;;24.40;55.60;;;;;;5028862;28;20029;-71
2022/07/17 11:11:39;;;;;;;2.55;1.58;;;24.40;55.40;;;;;;5027863;28;20033;-71
2022/07/17 11:14:19;;;;;;;3.72;1.88;;;24.50;55.30;;;;;;5025773;28;20060;-71
2022/07/17 11:16:54;;;;;;;5.00;2.10;;;24.50;54.60;;;;;;5026337;28;20032;-71
2022/07/17 11:19:21;;;;;;;2.60;1.75;;;24.50;54.40;;;;;;5030417;28;20025;-71
2022/07/17 11:21:48;;;;;;;3.45;1.88;;;24.60;54.30;;;;;;5029044;28;20128;-72
2022/07/17 11:24:14;;;;;;;1.88;1.67;;;24.70;53.70;;;;;;5030109;28;20029;-72
2022/07/17 11:26:41;;;;;;;4.07;1.90;;;24.70;53.30;;;;;;5035148;28;20063;-70
2022/07/17 11:29:06;;;;;;;2.85;2.00;;;24.70;53.40;;;;;;5022839;28;20022;-72
2022/07/17 11:31:32;;;;;;;2.50;1.50;;;24.80;53.30;;;;;;5034482;28;20025;-72
2022/07/17 11:34:05;;;;;;;2.40;1.40;;;24.80;52.60;;;;;;5029838;28;20029;-72
2022/07/17 11:36:37;;;;;;;3.33;2.00;;;24.80;52.50;;;;;;5011971;28;20505;-73
2022/07/17 11:39:15;;;;;;;2.55;1.73;;;24.80;52.90;;;;;;5027803;28;20025;-73
2022/07/17 11:41:44;;;;;;;2.08;1.55;;;24.90;52.30;;;;;;5034808;28;20025;-76
2022/07/17 11:44:12;;;;;;;3.15;1.50;;;25.00;51.50;;;;;;5033991;28;20045;-72
2022/07/17 11:46:43;;;;;;;3.85;1.90;;;25.00;51.00;;;;;;5035930;28;20022;-73
2022/07/17 11:49:09;;;;;;;2.38;1.50;;;25.00;50.70;;;;;;5017429;28;20025;-74
2022/07/17 11:51:43;;;;;;;3.85;1.73;;;25.00;50.40;;;;;;5034089;28;20049;-74
2022/07/17 11:54:16;;;;;;;5.80;1.60;;;25.10;50.40;;;;;;5034676;28;20025;-74
2022/07/17 11:56:51;;;;;;;2.23;1.33;;;25.10;50.60;;;;;;5034100;28;20509;-75
2022/07/17 11:59:30;;;;;;;3.08;1.67;;;25.10;50.30;;;;;;5030950;28;20267;-74
2022/07/17 12:02:06;;;;;;;2.60;1.50;;;25.10;49.80;;;;;;5034083;28;20385;-74
2022/07/17 12:04:32;;;;;;;2.80;1.50;;;25.10;49.60;;;;;;5034887;28;20025;-74
2022/07/17 12:07:03;;;;;;;3.50;1.50;;;25.20;49.70;;;;;;5019748;28;20112;-73
2022/07/17 12:09:36;;;;;;;1.88;1.30;;;25.20;49.60;;;;;;5033504;28;20022;-74
2022/07/17 12:12:02;;;;;;;;;;;25.20;49.70;;;;;;5033173;28;20053;-73
2022/07/17 12:14:29;;;;;;;3.20;1.33;;;25.20;49.30;;;;;;5015220;28;19905;-74
2022/07/17 12:17:03;;;;;;;2.10;1.35;;;25.30;48.70;;;;;;5046736;28;20025;-74
2022/07/17 12:19:29;;;;;;;1.70;1.40;;;25.40;48.70;;;;;;5035792;28;20026;-74
2022/07/17 12:22:03;;;;;;;2.25;1.60;;;25.40;49.40;;;;;;5014560;28;20103;-74
2022/07/17 12:24:32;;;;;;;;;;;25.50;49.40;;;;;;5032877;28;20017;-73
2022/07/17 12:27:00;;;;;;;3.90;1.60;;;25.50;49.00;;;;;;5032061;28;19940;-74
2022/07/17 12:29:27;;;;;;;2.28;1.67;;;25.50;49.40;;;;;;5031719;28;20037;-74
2022/07/17 12:32:14;;;;;;;2.40;1.40;;;25.60;48.00;;;;;;5030867;28;20034;-74
2022/07/17 12:34:45;;;;;;;3.58;1.50;;;25.60;47.90;;;;;;5012466;28;20029;-73
2022/07/17 12:37:15;;;;;;;4.13;1.52;;;25.60;47.50;;;;;;4994671;28;20100;-74
2022/07/17 12:39:42;;;;;;;3.95;1.70;;;25.60;47.80;;;;;;5014645;28;20394;-73
2022/07/17 12:42:09;;;;;;;2.47;1.33;;;25.60;48.00;;;;;;5016903;28;20038;-74
2022/07/17 12:44:35;;;;;;;1.98;1.35;;;25.70;48.00;;;;;;5035700;28;20022;-73
2022/07/17 12:47:00;;;;;;;4.47;2.08;;;25.70;48.30;;;;;;5035736;28;20036;-73